createdAt,value
2023-02-02T00:01:31.357Z,7.00
2023-02-02T00:04:00.544Z,7.10
2023-02-02T00:06:31.070Z,7.10
2023-02-02T00:09:03.570Z,7.10
2023-02-02T00:11:31.590Z,7.10
2023-02-02T00:14:00.816Z,7.30
2023-02-02T00:16:41.105Z,7.30
2023-02-02T00:19:12.018Z,7.10
2023-02-02T00:21:40.171Z,7.20
2023-02-02T00:24:11.826Z,7.20
2023-02-02T00:26:41.419Z,7.20
2023-02-02T00:29:16.201Z,7.00
2023-02-02T00:31:44.538Z,7.20
2023-02-02T00:34:13.983Z,7.30
2023-02-02T00:36:42.941Z,7.30
2023-02-02T00:39:16.255Z,7.50
2023-02-02T00:41:44.223Z,7.10
2023-02-02T00:44:29.876Z,7.40
2023-02-02T00:47:00.589Z,7.50
2023-02-02T00:49:28.614Z,7.60
2023-02-02T00:51:56.580Z,7.50
2023-02-02T00:54:25.905Z,7.50
2023-02-02T00:56:53.843Z,7.60
2023-02-02T00:59:21.837Z,7.70
2023-02-02T01:01:49.885Z,7.60
2023-02-02T01:04:18.131Z,7.50
2023-02-02T01:06:46.080Z,7.70
2023-02-02T01:09:14.077Z,7.20
2023-02-02T01:11:43.401Z,7.50
2023-02-02T01:14:11.422Z,7.30
2023-02-02T01:16:39.476Z,7.50
2023-02-02T01:19:07.533Z,7.40
2023-02-02T01:21:35.551Z,7.50
2023-02-02T01:24:03.616Z,7.30
2023-02-02T01:26:31.639Z,7.50
2023-02-02T01:29:01.028Z,7.40
2023-02-02T01:31:29.060Z,7.40
2023-02-02T01:33:57.087Z,7.20
2023-02-02T01:36:25.882Z,7.30
2023-02-02T01:38:53.939Z,7.40
2023-02-02T01:41:23.855Z,7.40
2023-02-02T01:43:56.727Z,7.50
2023-02-02T01:46:29.067Z,7.70
2023-02-02T01:49:06.709Z,7.40
2023-02-02T01:51:46.626Z,7.40
2023-02-02T01:54:23.146Z,7.30
2023-02-02T01:56:57.460Z,7.30
2023-02-02T01:59:26.374Z,7.30
2023-02-02T02:01:57.008Z,7.30
2023-02-02T02:04:26.692Z,7.30
2023-02-02T02:06:55.028Z,7.40
2023-02-02T02:09:22.985Z,7.20
2023-02-02T02:11:53.020Z,7.20
2023-02-02T02:14:39.129Z,7.40
2023-02-02T02:17:24.780Z,7.30
2023-02-02T02:20:50.615Z,7.40
2023-02-02T02:24:36.571Z,7.20
2023-02-02T02:27:46.915Z,7.60
2023-02-02T02:31:06.187Z,7.40
2023-02-02T02:33:43.877Z,7.30
2023-02-02T02:36:18.678Z,7.40
2023-02-02T02:38:52.877Z,7.30
2023-02-02T02:41:24.134Z,7.40
2023-02-02T02:43:56.647Z,7.30
2023-02-02T02:46:25.176Z,7.40
2023-02-02T02:48:57.855Z,7.40
2023-02-02T02:51:50.112Z,7.30
2023-02-02T02:54:22.675Z,7.40
2023-02-02T02:57:25.358Z,7.60
2023-02-02T03:00:02.802Z,7.60
2023-02-02T03:02:43.384Z,7.70
2023-02-02T03:05:27.711Z,7.90
2023-02-02T03:08:07.622Z,7.90
2023-02-02T03:10:37.341Z,7.80
2023-02-02T03:13:09.717Z,7.90
2023-02-02T03:15:38.315Z,7.60
2023-02-02T03:18:06.452Z,7.50
2023-02-02T03:20:36.543Z,7.50
2023-02-02T03:23:04.557Z,7.50
2023-02-02T03:25:32.722Z,7.60
2023-02-02T03:28:00.895Z,7.20
2023-02-02T03:30:29.439Z,7.50
2023-02-02T03:32:57.449Z,7.60
2023-02-02T03:35:26.282Z,7.70
2023-02-02T03:37:55.817Z,7.80
2023-02-02T03:40:23.993Z,7.40
2023-02-02T03:42:51.962Z,7.30
2023-02-02T03:45:19.950Z,7.40
2023-02-02T03:47:47.952Z,7.40
2023-02-02T03:50:16.329Z,7.30
2023-02-02T03:52:44.331Z,7.50
2023-02-02T03:55:13.643Z,7.40
2023-02-02T03:57:41.627Z,7.60
2023-02-02T04:00:12.128Z,7.60
2023-02-02T04:02:40.260Z,7.40
2023-02-02T04:05:08.667Z,7.40
2023-02-02T04:07:36.721Z,7.50
2023-02-02T04:10:05.653Z,7.60
2023-02-02T04:12:35.003Z,7.50
2023-02-02T04:15:02.976Z,7.30
2023-02-02T04:17:30.898Z,7.20
2023-02-02T04:19:59.197Z,7.30
2023-02-02T04:22:28.295Z,7.30
2023-02-02T04:24:56.340Z,7.30
2023-02-02T04:27:24.462Z,7.20
2023-02-02T04:29:53.797Z,7.10
2023-02-02T04:32:21.810Z,7.20
2023-02-02T04:34:49.803Z,7.10
2023-02-02T04:37:17.801Z,7.00
2023-02-02T04:39:45.846Z,7.10
2023-02-02T04:42:13.775Z,7.20
2023-02-02T04:44:41.828Z,7.30
2023-02-02T04:47:11.135Z,7.30
2023-02-02T04:49:39.095Z,7.30
2023-02-02T04:52:07.280Z,7.20
2023-02-02T04:54:35.548Z,7.20
2023-02-02T04:57:03.632Z,7.30
2023-02-02T04:59:31.622Z,7.40
2023-02-02T05:02:01.262Z,7.40
2023-02-02T05:04:30.648Z,7.30
2023-02-02T05:06:58.642Z,7.50
2023-02-02T05:09:27.130Z,7.40
2023-02-02T05:11:55.162Z,7.30
2023-02-02T05:14:23.413Z,7.30
2023-02-02T05:16:51.475Z,7.40
2023-02-02T05:19:19.463Z,7.10
2023-02-02T05:21:51.201Z,7.30
2023-02-02T05:24:19.469Z,7.30
2023-02-02T05:26:47.525Z,7.30
2023-02-02T05:29:15.641Z,7.30
2023-02-02T05:31:43.660Z,7.40
2023-02-02T05:34:11.767Z,7.60
2023-02-02T05:36:39.844Z,7.80
2023-02-02T05:39:10.391Z,7.60
2023-02-02T05:41:38.457Z,7.70
2023-02-02T05:44:06.647Z,7.60
2023-02-02T05:46:34.663Z,7.60
2023-02-02T05:49:04.947Z,7.70
2023-02-02T05:51:35.496Z,7.80
2023-02-02T05:54:03.496Z,7.70
2023-02-02T05:56:33.164Z,7.60
2023-02-02T05:59:01.212Z,7.30
2023-02-02T06:01:29.326Z,7.30
2023-02-02T06:03:57.647Z,7.40
2023-02-02T06:06:25.707Z,7.20
2023-02-02T06:08:53.713Z,7.20
2023-02-02T06:11:21.722Z,7.10
2023-02-02T06:13:51.114Z,7.00
2023-02-02T06:16:19.185Z,6.80
2023-02-02T06:18:49.525Z,6.80
2023-02-02T06:21:19.681Z,6.90
2023-02-02T06:23:47.802Z,7.00
2023-02-02T06:26:16.911Z,7.00
2023-02-02T06:28:51.168Z,7.10
2023-02-02T06:31:20.075Z,7.10
2023-02-02T06:33:48.748Z,7.10
2023-02-02T06:36:16.966Z,7.30
2023-02-02T06:38:45.065Z,7.30
2023-02-02T06:41:13.020Z,7.20
2023-02-02T06:43:41.012Z,7.10
2023-02-02T06:46:10.441Z,7.10
2023-02-02T06:48:38.520Z,7.30
2023-02-02T06:51:07.122Z,7.20
2023-02-02T06:53:35.844Z,7.40
2023-02-02T06:56:06.750Z,7.40
2023-02-02T06:58:35.486Z,7.30
2023-02-02T07:01:05.332Z,7.40
2023-02-02T07:03:35.520Z,7.60
2023-02-02T07:06:14.039Z,7.40
2023-02-02T07:08:42.411Z,7.60
2023-02-02T07:11:14.941Z,7.50
2023-02-02T07:13:44.700Z,7.60
2023-02-02T07:16:13.941Z,7.60
2023-02-02T07:18:44.050Z,7.60
2023-02-02T07:21:19.409Z,7.80
2023-02-02T07:23:47.764Z,7.90
2023-02-02T07:26:19.932Z,8.00
2023-02-02T07:28:48.579Z,7.80
2023-02-02T07:31:19.552Z,7.70
2023-02-02T07:33:49.718Z,7.80
2023-02-02T07:36:21.260Z,7.80
2023-02-02T07:38:53.779Z,7.80
2023-02-02T07:41:22.616Z,7.80
2023-02-02T07:43:51.157Z,7.60
2023-02-02T07:46:20.384Z,7.60
2023-02-02T07:48:49.968Z,7.40
2023-02-02T07:51:19.394Z,7.50
2023-02-02T07:53:49.889Z,7.60
2023-02-02T07:56:20.601Z,7.60
2023-02-02T07:58:49.370Z,7.60
2023-02-02T08:01:18.203Z,7.70
2023-02-02T08:03:46.185Z,7.70
2023-02-02T08:06:19.210Z,7.60
2023-02-02T08:08:48.151Z,7.50
2023-02-02T08:11:19.193Z,7.40
2023-02-02T08:13:51.348Z,7.60
2023-02-02T08:16:20.059Z,7.50
2023-02-02T08:18:48.645Z,7.60
2023-02-02T08:21:18.949Z,7.40
2023-02-02T08:23:47.975Z,7.40
2023-02-02T08:26:19.208Z,7.40
2023-02-02T08:28:53.608Z,7.70
2023-02-02T08:31:24.367Z,7.80
2023-02-02T08:33:53.935Z,7.80
2023-02-02T08:36:25.567Z,7.80
2023-02-02T08:38:53.774Z,7.80
2023-02-02T08:41:23.848Z,7.80
2023-02-02T08:43:52.698Z,7.80
2023-02-02T08:46:22.242Z,7.80
2023-02-02T08:48:50.515Z,8.00
2023-02-02T08:51:20.784Z,8.00
2023-02-02T08:53:50.188Z,8.10
2023-02-02T08:56:21.061Z,8.40
2023-02-02T08:58:52.388Z,8.10
2023-02-02T09:01:23.260Z,8.10
2023-02-02T09:03:55.480Z,8.30
2023-02-02T09:06:29.390Z,8.60
2023-02-02T09:08:58.777Z,8.60
2023-02-02T09:11:26.954Z,8.90
2023-02-02T09:13:57.332Z,9.10
2023-02-02T09:16:27.413Z,9.20
2023-02-02T09:18:56.070Z,9.10
2023-02-02T09:21:24.934Z,9.50
2023-02-02T09:23:54.656Z,9.30
2023-02-02T09:26:27.141Z,9.20
2023-02-02T09:28:58.096Z,9.30
2023-02-02T09:31:27.414Z,9.40
2023-02-02T09:33:55.946Z,9.50
2023-02-02T09:36:26.991Z,9.80
2023-02-02T09:38:55.168Z,10.00
2023-02-02T09:42:03.788Z,9.90
2023-02-02T09:45:05.010Z,10.00
2023-02-02T09:47:56.652Z,10.30
2023-02-02T09:50:45.053Z,10.50
2023-02-02T09:53:22.381Z,10.50
2023-02-02T09:55:53.848Z,10.60
2023-02-02T09:58:27.216Z,10.60
2023-02-02T10:01:02.619Z,10.30
2023-02-02T10:03:36.922Z,10.20
2023-02-02T10:06:25.471Z,9.50
2023-02-02T10:08:58.232Z,9.40
2023-02-02T10:11:35.390Z,9.30
2023-02-02T10:14:14.229Z,9.30
2023-02-02T10:16:43.122Z,9.40
2023-02-02T10:19:14.508Z,9.20
2023-02-02T10:21:52.021Z,9.20
2023-02-02T10:24:24.193Z,9.40
2023-02-02T10:26:55.297Z,9.60
2023-02-02T10:29:48.090Z,9.40
2023-02-02T10:32:25.433Z,9.30
2023-02-02T10:35:20.119Z,9.50
2023-02-02T10:37:56.873Z,9.40
2023-02-02T10:40:41.130Z,9.30
2023-02-02T10:43:48.887Z,9.60
2023-02-02T10:46:23.956Z,10.30
2023-02-02T10:49:00.570Z,10.90
2023-02-02T10:51:30.561Z,11.50
2023-02-02T10:54:01.221Z,11.90
2023-02-02T10:56:37.361Z,12.00
2023-02-02T10:59:10.828Z,12.30
2023-02-02T11:01:40.281Z,12.90
2023-02-02T11:04:28.220Z,13.00
2023-02-02T11:06:56.492Z,13.40
2023-02-02T11:09:29.459Z,13.30
2023-02-02T11:12:05.249Z,13.10
2023-02-02T11:14:45.647Z,12.40
2023-02-02T11:17:22.242Z,12.70
2023-02-02T11:19:51.342Z,12.10
2023-02-02T11:22:33.925Z,11.70
2023-02-02T11:25:04.204Z,11.50
2023-02-02T11:27:36.216Z,11.40
2023-02-02T11:30:22.890Z,11.30
2023-02-02T11:32:52.667Z,11.10
2023-02-02T11:35:23.899Z,10.80
2023-02-02T11:38:11.323Z,10.90
2023-02-02T11:40:41.801Z,10.70
2023-02-02T11:43:20.184Z,10.80
2023-02-02T11:45:55.063Z,10.90
2023-02-02T11:48:30.355Z,10.40
2023-02-02T11:51:00.877Z,10.30
2023-02-02T11:53:32.244Z,10.50
2023-02-02T11:56:03.567Z,10.50
2023-02-02T11:58:44.244Z,10.60
2023-02-02T12:01:26.512Z,10.40
2023-02-02T12:03:57.960Z,10.30
2023-02-02T12:06:28.022Z,10.00
2023-02-02T12:09:01.326Z,9.80
2023-02-02T12:11:40.839Z,10.10
2023-02-02T12:14:29.329Z,10.30
2023-02-02T12:17:12.705Z,10.50
2023-02-02T12:20:11.268Z,10.50
2023-02-02T12:22:57.863Z,10.50
2023-02-02T12:25:51.384Z,11.00
2023-02-02T12:28:35.787Z,11.40
2023-02-02T12:31:15.245Z,11.00
2023-02-02T12:33:53.863Z,11.00
2023-02-02T12:36:43.052Z,10.70
2023-02-02T12:39:28.139Z,10.40
2023-02-02T12:42:43.115Z,10.30
2023-02-02T12:45:37.954Z,10.00
2023-02-02T12:48:28.248Z,9.70
2023-02-02T12:51:11.636Z,9.50
2023-02-02T12:54:33.594Z,9.50
2023-02-02T12:57:01.691Z,9.80
2023-02-02T13:00:05.630Z,9.70
2023-02-02T13:02:39.349Z,9.80
2023-02-02T13:05:34.851Z,9.60
2023-02-02T13:08:07.102Z,9.50
2023-02-02T13:10:41.780Z,9.80
2023-02-02T13:13:15.262Z,9.80
2023-02-02T13:15:47.741Z,9.90
2023-02-02T13:18:20.955Z,9.50
2023-02-02T13:20:53.919Z,9.50
2023-02-02T13:23:26.526Z,9.70
2023-02-02T13:26:02.351Z,9.80
2023-02-02T13:28:39.481Z,10.00
2023-02-02T13:31:17.565Z,9.90
2023-02-02T13:33:54.603Z,10.00
2023-02-02T13:36:29.610Z,10.00
2023-02-02T13:39:01.259Z,9.80
2023-02-02T13:41:31.740Z,9.80
2023-02-02T13:44:06.053Z,9.70
2023-02-02T13:46:40.672Z,9.60
2023-02-02T13:49:13.627Z,9.80
2023-02-02T13:52:13.500Z,10.10
2023-02-02T13:55:27.609Z,10.10
2023-02-02T13:58:26.645Z,10.20
2023-02-02T14:01:01.383Z,10.10
2023-02-02T14:03:38.613Z,10.00
2023-02-02T14:06:16.826Z,10.30
2023-02-02T14:08:50.061Z,10.10
2023-02-02T14:11:26.043Z,10.20
2023-02-02T14:14:16.192Z,10.10
2023-02-02T14:16:51.235Z,10.00
2023-02-02T14:19:51.643Z,10.10
2023-02-02T14:22:42.970Z,10.20
2023-02-02T14:25:55.524Z,10.20
2023-02-02T14:28:45.875Z,10.20
2023-02-02T14:31:54.082Z,10.20
2023-02-02T14:34:33.613Z,10.10
2023-02-02T14:37:43.118Z,10.10
2023-02-02T14:40:48.613Z,9.70
2023-02-02T14:43:44.314Z,9.70
2023-02-02T14:46:35.096Z,9.90
2023-02-02T14:49:36.273Z,10.20
2023-02-02T14:52:05.325Z,10.20
2023-02-02T14:54:40.005Z,10.30
2023-02-02T14:57:26.497Z,10.40
2023-02-02T14:59:56.225Z,10.30
2023-02-02T15:02:32.968Z,10.20
2023-02-02T15:05:41.674Z,10.30
2023-02-02T15:08:22.558Z,10.10
2023-02-02T15:11:29.985Z,10.10
2023-02-02T15:14:07.274Z,10.10
2023-02-02T15:16:39.496Z,10.10
2023-02-02T15:19:18.526Z,10.10
2023-02-02T15:21:50.405Z,10.20
2023-02-02T15:24:25.451Z,10.20
2023-02-02T15:26:56.117Z,10.00
2023-02-02T15:29:34.804Z,9.90
2023-02-02T15:32:04.732Z,9.90
2023-02-02T15:34:41.420Z,9.50
2023-02-02T15:37:16.307Z,9.80
2023-02-02T15:39:49.102Z,9.90
2023-02-02T15:42:38.122Z,9.90
2023-02-02T15:45:07.478Z,9.90
2023-02-02T15:47:39.696Z,10.20
2023-02-02T15:50:20.405Z,10.30
2023-02-02T15:52:52.133Z,10.30
2023-02-02T15:55:24.674Z,10.30
2023-02-02T15:57:55.184Z,10.30
2023-02-02T16:00:28.338Z,10.30
2023-02-02T16:03:03.194Z,10.20
2023-02-02T16:05:46.297Z,10.20
2023-02-02T16:08:21.051Z,10.30
2023-02-02T16:10:50.027Z,10.00
2023-02-02T16:13:26.994Z,10.10
2023-02-02T16:16:00.456Z,10.20
2023-02-02T16:18:30.132Z,10.00
2023-02-02T16:21:02.783Z,9.80
2023-02-02T16:23:35.674Z,10.00
2023-02-02T16:26:07.020Z,10.00
2023-02-02T16:28:36.100Z,9.80
2023-02-02T16:31:07.382Z,9.80
2023-02-02T16:33:40.373Z,9.60
2023-02-02T16:36:26.221Z,9.60
2023-02-02T16:38:57.723Z,9.60
2023-02-02T16:41:33.746Z,9.50
2023-02-02T16:44:38.425Z,9.40
2023-02-02T16:47:08.685Z,9.30
2023-02-02T16:49:37.680Z,9.40
2023-02-02T16:52:14.104Z,9.40
2023-02-02T16:54:53.172Z,9.50
2023-02-02T16:57:26.758Z,9.60
2023-02-02T16:59:58.210Z,9.10
2023-02-02T17:02:32.119Z,9.30
2023-02-02T17:05:05.114Z,9.50
2023-02-02T17:07:36.987Z,9.40
2023-02-02T17:10:24.073Z,9.60
2023-02-02T17:12:52.345Z,9.70
2023-02-02T17:15:34.665Z,9.90
2023-02-02T17:18:05.385Z,9.80
2023-02-02T17:20:34.541Z,9.90
2023-02-02T17:23:10.437Z,9.70
2023-02-02T17:25:43.763Z,9.80
2023-02-02T17:28:15.834Z,9.70
2023-02-02T17:30:46.408Z,9.60
2023-02-02T17:33:17.674Z,9.60
2023-02-02T17:35:54.703Z,9.70
2023-02-02T17:38:25.889Z,9.90
2023-02-02T17:40:56.394Z,9.90
2023-02-02T17:43:24.615Z,9.90
2023-02-02T17:45:53.163Z,9.80
2023-02-02T17:48:21.734Z,9.70
2023-02-02T17:50:51.947Z,9.80
2023-02-02T17:53:22.508Z,9.90
2023-02-02T17:55:53.601Z,9.90
2023-02-02T17:58:23.295Z,9.90
2023-02-02T18:00:55.496Z,9.70
2023-02-02T18:03:26.551Z,9.80
2023-02-02T18:05:55.861Z,9.90
2023-02-02T18:08:24.601Z,9.70
2023-02-02T18:10:52.702Z,9.90
2023-02-02T18:13:24.332Z,10.00
2023-02-02T18:15:55.146Z,9.90
2023-02-02T18:18:23.897Z,9.90
2023-02-02T18:20:52.751Z,9.80
2023-02-02T18:23:21.579Z,9.70
2023-02-02T18:25:49.719Z,9.70
2023-02-02T18:28:18.137Z,9.70
2023-02-02T18:30:48.458Z,9.70
2023-02-02T18:33:20.000Z,9.50
2023-02-02T18:35:49.374Z,9.40
2023-02-02T18:38:18.116Z,9.30
2023-02-02T18:40:46.460Z,9.60
2023-02-02T18:43:14.792Z,9.60
2023-02-02T18:45:43.041Z,9.60
2023-02-02T18:48:12.763Z,9.70
2023-02-02T18:50:41.079Z,9.60
2023-02-02T18:53:09.422Z,9.70
2023-02-02T18:55:38.864Z,9.90
2023-02-02T18:58:10.551Z,9.60
2023-02-02T19:00:38.782Z,9.50
2023-02-02T19:03:06.789Z,9.50
2023-02-02T19:05:53.878Z,9.50
2023-02-02T19:08:21.976Z,9.50
2023-02-02T19:10:58.679Z,9.50
2023-02-02T19:13:27.909Z,9.60
2023-02-02T19:15:56.753Z,9.50
2023-02-02T19:18:25.987Z,9.30
2023-02-02T19:20:55.353Z,9.10
2023-02-02T19:23:26.578Z,9.20
2023-02-02T19:25:56.902Z,9.20
2023-02-02T19:28:28.333Z,9.40
2023-02-02T19:30:58.796Z,9.50
2023-02-02T19:33:38.136Z,9.50
2023-02-02T19:36:15.137Z,9.80
2023-02-02T19:38:43.243Z,9.60
2023-02-02T19:41:20.260Z,9.60
2023-02-02T19:43:49.418Z,9.60
2023-02-02T19:46:22.535Z,9.50
2023-02-02T19:48:55.417Z,9.40
2023-02-02T19:51:42.750Z,9.20
2023-02-02T19:54:33.393Z,9.20
2023-02-02T19:57:11.336Z,9.10
2023-02-02T19:59:39.408Z,9.30
2023-02-02T20:02:35.495Z,9.30
2023-02-02T20:05:18.076Z,9.10
2023-02-02T20:07:48.101Z,9.10
2023-02-02T20:10:22.246Z,9.30
2023-02-02T20:12:51.045Z,9.30
2023-02-02T20:15:29.467Z,9.20
2023-02-02T20:17:59.414Z,9.30
2023-02-02T20:20:30.477Z,9.40
2023-02-02T20:23:00.070Z,9.30
2023-02-02T20:25:29.191Z,9.50
2023-02-02T20:27:58.929Z,9.40
2023-02-02T20:30:30.819Z,9.40
2023-02-02T20:33:01.535Z,9.30
2023-02-02T20:35:37.653Z,9.00
2023-02-02T20:38:22.610Z,9.00
2023-02-02T20:40:52.416Z,8.90
2023-02-02T20:43:20.668Z,8.80
2023-02-02T20:45:49.828Z,9.10
2023-02-02T20:48:17.913Z,9.10
2023-02-02T20:50:46.857Z,9.10
2023-02-02T20:53:16.565Z,9.10
2023-02-02T20:55:44.877Z,9.30
2023-02-02T20:58:13.271Z,9.40
2023-02-02T21:00:41.507Z,9.30
2023-02-02T21:03:09.559Z,9.20
2023-02-02T21:05:38.006Z,9.20
2023-02-02T21:08:07.032Z,9.00
2023-02-02T21:10:36.389Z,9.10
2023-02-02T21:13:04.420Z,9.00
2023-02-02T21:15:32.475Z,9.00
2023-02-02T21:18:00.513Z,9.10
2023-02-02T21:20:28.880Z,9.10
2023-02-02T21:22:57.066Z,9.10
2023-02-02T21:25:25.080Z,9.40
2023-02-02T21:27:55.274Z,9.30
2023-02-02T21:30:23.500Z,9.30
2023-02-02T21:32:51.625Z,9.30
2023-02-02T21:35:19.792Z,9.20
2023-02-02T21:37:51.478Z,9.40
2023-02-02T21:40:33.969Z,9.00
2023-02-02T21:43:15.338Z,9.10
2023-02-02T21:45:45.784Z,9.10
2023-02-02T21:48:29.679Z,9.20
2023-02-02T21:50:58.079Z,9.10
2023-02-02T21:53:28.642Z,9.40
2023-02-02T21:55:59.517Z,9.10
2023-02-02T21:58:35.211Z,9.20
2023-02-02T22:01:19.526Z,9.20
2023-02-02T22:03:49.618Z,9.20
2023-02-02T22:06:26.497Z,9.00
2023-02-02T22:09:02.015Z,9.00
2023-02-02T22:11:37.532Z,9.10
2023-02-02T22:14:19.695Z,9.20
2023-02-02T22:16:51.095Z,9.10
2023-02-02T22:19:32.703Z,9.20
2023-02-02T22:22:19.658Z,9.10
2023-02-02T22:24:54.177Z,9.20
2023-02-02T22:27:25.652Z,9.20
2023-02-02T22:30:03.537Z,9.10
2023-02-02T22:32:31.702Z,9.00
2023-02-02T22:35:00.210Z,8.90
2023-02-02T22:37:29.802Z,8.90
2023-02-02T22:40:00.601Z,8.90
2023-02-02T22:42:28.878Z,9.10
2023-02-02T22:44:58.209Z,9.00
2023-02-02T22:47:26.439Z,9.00
2023-02-02T22:49:54.669Z,9.00
2023-02-02T22:52:22.772Z,8.90
2023-02-02T22:54:51.049Z,8.90
2023-02-02T22:57:19.038Z,8.70
2023-02-02T22:59:47.067Z,8.60
2023-02-02T23:02:16.468Z,8.60
2023-02-02T23:04:44.749Z,8.80
2023-02-02T23:07:12.802Z,9.00
2023-02-02T23:09:40.793Z,9.10
2023-02-02T23:12:09.077Z,9.10
2023-02-02T23:14:37.102Z,9.10
2023-02-02T23:17:08.096Z,9.00
2023-02-02T23:19:37.502Z,8.70
2023-02-02T23:22:05.470Z,8.60
2023-02-02T23:24:33.649Z,8.70
2023-02-02T23:27:02.013Z,8.90
2023-02-02T23:29:30.029Z,9.10
2023-02-02T23:31:58.083Z,9.10
2023-02-02T23:34:26.122Z,9.10
2023-02-02T23:36:55.464Z,9.10
2023-02-02T23:39:23.446Z,9.10
2023-02-02T23:41:51.417Z,9.10
2023-02-02T23:44:19.381Z,9.10
2023-02-02T23:46:47.652Z,9.00
2023-02-02T23:49:15.938Z,9.10
2023-02-02T23:51:44.339Z,9.10
2023-02-02T23:54:14.955Z,9.10
2023-02-02T23:56:43.736Z,9.10
2023-02-02T23:59:11.713Z,9.20
